Time;durP1;ratioP1;P1;durP2;ratioP2;P2;SDS_P1;SDS_P2;PMS_P1;PMS_P2;Temp;Humidity;BMP_temperature;BMP_pressure;BME280_temperature;BME280_humidity;BME280_pressure;Samples;Min_cycle;Max_cycle;Signal;HPM_P1;HPM_P2
2023/11/03 00:07:33;;;;;;;;;;;10.90;99.90;;;;;;6661257;88;20038;-79
2023/11/03 00:17:34;;;;;;;;;;;11.00;99.90;;;;;;6661322;88;20054;-77
2023/11/03 00:27:34;;;;;;;;;;;11.00;99.90;;;;;;6661304;89;20191;-79
2023/11/03 00:37:39;;;;;;;;;;;11.00;99.90;;;;;;6660772;89;20149;-79
2023/11/03 00:47:39;;;;;;;;;;;11.00;99.90;;;;;;6660416;89;20065;-78
2023/11/03 00:57:39;;;;;;;;;;;10.90;99.90;;;;;;6660802;89;21022;-79
2023/11/03 01:07:40;;;;;;;;;;;10.90;99.90;;;;;;6660599;89;20108;-78
2023/11/03 01:17:41;;;;;;;;;;;10.90;99.90;;;;;;6660752;89;20079;-79
2023/11/03 01:27:44;;;;;;;;;;;10.80;99.90;;;;;;6660644;89;20083;-79
2023/11/03 01:37:45;;;;;;;;;;;10.80;99.90;;;;;;6660611;89;20066;-79
2023/11/03 01:47:45;;;;;;;;;;;10.70;99.90;;;;;;6660471;89;20058;-78
2023/11/03 01:57:46;;;;;;;;;;;10.60;99.90;;;;;;6659975;88;20059;-79
2023/11/03 02:07:47;;;;;;;;;;;10.50;99.90;;;;;;6645992;88;20035;-79
2023/11/03 02:17:48;;;;;;;;;;;10.50;99.90;;;;;;6645807;88;20082;-79
2023/11/03 02:38:29;;;;;;;;;;;10.50;99.90;;;;;;6666263;88;20088;-81
2023/11/03 02:48:30;;;;;;;;;;;10.30;99.90;;;;;;6654998;89;20065;-80
2023/11/03 02:58:34;;;;;;;;;;;10.30;99.90;;;;;;6655739;89;20072;-79
2023/11/03 03:08:34;;;;;;;;;;;10.10;99.90;;;;;;6669283;88;20110;-79
2023/11/03 03:18:35;;;;;;;;;;;10.00;99.90;;;;;;6685790;88;20075;-80
2023/11/03 03:28:35;;;;;;;;;;;9.80;99.90;;;;;;6692714;88;20109;-80
2023/11/03 03:38:36;;;;;;;;;;;9.70;99.90;;;;;;6673055;88;20091;-81
2023/11/03 03:48:37;;;;;;;;;;;9.60;99.90;;;;;;6687601;88;20092;-80
2023/11/03 03:58:38;;;;;;;;;;;9.40;99.90;;;;;;6683162;87;20086;-79
2023/11/03 04:08:39;;;;;;;;;;;9.40;99.90;;;;;;6684818;88;20084;-79
2023/11/03 04:18:42;;;;;;;;;;;9.30;99.90;;;;;;6686061;88;20065;-80
2023/11/03 04:28:43;;;;;;;;;;;9.10;99.90;;;;;;6672467;88;20591;-83
2023/11/03 04:38:43;;;;;;;;;;;9.10;99.90;;;;;;6683303;88;20100;-82
2023/11/03 04:48:45;;;;;;;;;;;9.20;99.90;;;;;;6692002;88;20086;-82
2023/11/03 04:58:46;;;;;;;;;;;9.10;99.90;;;;;;6674984;88;20537;-83
2023/11/03 05:08:47;;;;;;;;;;;9.10;99.90;;;;;;6672198;88;20150;-83
2023/11/03 05:18:47;;;;;;;;;;;9.10;99.90;;;;;;6670489;88;20518;-81
2023/11/03 05:28:48;;;;;;;;;;;9.10;99.90;;;;;;6672460;88;20102;-81
2023/11/03 05:38:49;;;;;;;;;;;9.10;99.90;;;;;;6685912;88;20107;-82
2023/11/03 05:48:50;;;;;;;;;;;8.90;99.90;;;;;;6685562;88;20073;-82
2023/11/03 05:58:51;;;;;;;;;;;8.80;99.90;;;;;;6687652;88;20066;-79
2023/11/03 06:08:52;;;;;;;;;;;8.70;99.90;;;;;;6697960;88;20100;-82
2023/11/03 06:18:52;;;;;;;;;;;8.60;99.90;;;;;;6692957;88;20075;-81
2023/11/03 06:28:56;;;;;;;;;;;8.60;99.90;;;;;;6700270;87;20076;-82
2023/11/03 06:38:56;;;;;;;;;;;8.60;99.90;;;;;;6693436;87;20550;-80
2023/11/03 06:48:57;;;;;;;;;;;8.60;99.90;;;;;;6688881;88;20090;-81
2023/11/03 06:58:57;;;;;;;;;;;8.50;99.90;;;;;;6678581;89;20064;-80
2023/11/03 07:08:58;;;;;;;;;;;8.70;99.90;;;;;;6683364;89;20102;-80
2023/11/03 07:18:59;;;;;;;;;;;8.70;99.90;;;;;;6670441;89;20075;-79
2023/11/03 07:28:59;;;;;;;;;;;8.90;99.90;;;;;;6693555;87;20106;-83
2023/11/03 07:39:01;;;;;;;;;;;9.20;99.90;;;;;;6685749;87;20596;-82
2023/11/03 07:49:02;;;;;;;;;;;9.50;99.90;;;;;;6680161;88;20082;-83
2023/11/03 07:59:02;;;;;;;;;;;9.60;99.90;;;;;;6698531;88;20099;-84
2023/11/03 08:09:04;;;;;;;;;;;9.90;99.90;;;;;;6700562;88;20091;-83
2023/11/03 08:19:04;;;;;;;;;;;10.50;99.90;;;;;;6673662;88;20070;-83
2023/11/03 08:29:05;;;;;;;;;;;11.10;99.90;;;;;;6687453;88;20072;-83
2023/11/03 08:39:08;;;;;;;;;;;11.10;99.90;;;;;;6687899;88;20068;-83
2023/11/03 08:49:09;;;;;;;;;;;11.10;99.90;;;;;;6675644;88;20584;-83
2023/11/03 08:59:09;;;;;;;;;;;11.00;99.90;;;;;;6697230;87;20100;-80
2023/11/03 09:09:10;;;;;;;;;;;11.10;99.90;;;;;;6692520;87;20610;-79
2023/11/03 09:19:10;;;;;;;;;;;11.20;99.90;;;;;;6686541;88;20074;-80
2023/11/03 09:29:11;;;;;;;;;;;11.60;99.90;;;;;;6684054;88;20168;-81
2023/11/03 09:39:11;;;;;;;;;;;12.50;99.90;;;;;;6681201;88;20637;-81
2023/11/03 09:49:12;;;;;;;;;;;12.50;99.90;;;;;;6685337;88;20535;-80
2023/11/03 09:59:13;;;;;;;;;;;13.00;99.90;;;;;;6701020;88;20191;-81
2023/11/03 10:09:16;;;;;;;;;;;13.30;99.90;;;;;;6699398;88;20065;-81
2023/11/03 10:19:19;;;;;;;;;;;13.50;99.90;;;;;;6698649;87;20084;-81
2023/11/03 10:29:23;;;;;;;;;;;13.90;99.90;;;;;;6761551;87;20030;-81
2023/11/03 10:39:25;;;;;;;;;;;14.10;99.90;;;;;;6765784;87;20053;-81
2023/11/03 10:49:32;;;;;;;;;;;14.00;99.90;;;;;;6726385;88;20081;-79
2023/11/03 10:59:33;;;;;;;;;;;13.20;99.90;;;;;;6694797;88;20247;-82
2023/11/03 11:09:47;;;;;;;;;;;13.40;99.90;;;;;;6670028;88;20101;-80
2023/11/03 11:19:52;;;;;;;;;;;14.00;99.90;;;;;;6686471;88;20070;-81
2023/11/03 11:30:14;;;;;;;;;;;15.10;99.90;;;;;;6682852;87;20196;-82
2023/11/03 11:40:15;;;;;;;;;;;15.40;99.90;;;;;;6681971;87;20104;-80
2023/11/03 11:50:17;;;;;;;;;;;14.80;99.90;;;;;;6672826;89;20207;-79
2023/11/03 12:00:18;;;;;;;;;;;15.60;99.90;;;;;;6671316;88;20100;-78
2023/11/03 12:10:19;;;;;;;;;;;15.50;99.90;;;;;;6667701;88;20143;-78
2023/11/03 12:20:19;;;;;;;;;;;15.80;99.90;;;;;;6668009;88;20069;-79
2023/11/03 12:30:20;;;;;;;;;;;15.40;99.90;;;;;;6667737;89;20073;-78
2023/11/03 12:40:21;;;;;;;;;;;15.70;99.90;;;;;;6666254;88;20087;-79
2023/11/03 12:50:22;;;;;;;;;;;15.50;99.90;;;;;;6656148;88;20080;-80
2023/11/03 13:00:24;;;;;;;;;;;16.00;99.90;;;;;;6662916;88;20120;-80
2023/11/03 13:10:25;;;;;;;;;;;16.50;99.90;;;;;;6661860;88;20143;-80
2023/11/03 13:20:26;;;;;;;;;;;16.20;99.90;;;;;;6656209;89;20198;-82
2023/11/03 13:30:26;;;;;;;;;;;14.80;99.90;;;;;;6666200;89;20139;-84
2023/11/03 13:40:28;;;;;;;;;;;14.90;99.90;;;;;;6674324;89;20088;-82
2023/11/03 13:50:29;;;;;;;;;;;14.70;99.90;;;;;;6677431;88;20165;-83
2023/11/03 14:00:31;;;;;;;;;;;15.30;99.90;;;;;;6663048;89;20077;-83
2023/11/03 14:10:32;;;;;;;;;;;14.40;99.90;;;;;;6682028;88;20536;-84
2023/11/03 14:20:33;;;;;;;;;;;13.60;99.90;;;;;;6694275;87;20096;-84
2023/11/03 14:41:16;;;;;;;;;;;12.60;99.90;;;;;;6766426;88;20086;-84
2023/11/03 16:03:20;;;;;;;;;;;10.80;99.90;;;;;;7006210;77;20097;-87
2023/11/03 16:13:22;;;;;;;;;;;10.50;99.90;;;;;;6751994;88;20075;-89
2023/11/03 16:23:43;;;;;;;;;;;10.30;99.90;;;;;;6760688;77;20112;-86
2023/11/03 16:33:44;;;;;;;;;;;10.00;99.90;;;;;;6681139;87;20604;-85
2023/11/03 16:54:46;;;;;;;;;;;9.50;99.90;;;;;;6663243;89;20088;-85
2023/11/03 17:04:46;;;;;;;;;;;9.30;99.90;;;;;;6696787;88;20060;-83
2023/11/03 17:14:47;;;;;;;;;;;9.10;99.90;;;;;;6699290;88;20076;-86
2023/11/03 17:24:48;;;;;;;;;;;8.90;99.90;;;;;;6698610;88;20037;-89
2023/11/03 17:34:49;;;;;;;;;;;8.80;99.90;;;;;;6699119;88;20074;-85
2023/11/03 18:26:22;;;;;;;;;;;8.80;99.90;;;;;;6762635;88;20793;-82
2023/11/03 18:36:23;;;;;;;;;;;8.70;99.90;;;;;;6766579;88;20019;-82
2023/11/03 18:46:26;;;;;;;;;;;8.60;99.90;;;;;;6762151;88;20034;-82
2023/11/03 18:56:28;;;;;;;;;;;8.50;99.90;;;;;;6768435;88;20088;-84
2023/11/03 19:06:30;;;;;;;;;;;8.40;99.90;;;;;;6763470;88;20118;-83
2023/11/03 19:26:34;;;;;;;;;;;8.20;99.90;;;;;;6775988;88;20127;-81
2023/11/03 19:36:35;;;;;;;;;;;8.20;99.90;;;;;;6767614;88;20628;-82
2023/11/03 19:56:40;;;;;;;;;;;8.10;99.90;;;;;;6653561;88;20124;-79
2023/11/03 20:06:40;;;;;;;;;;;8.10;99.90;;;;;;6637027;89;20566;-82
2023/11/03 20:16:41;;;;;;;;;;;7.80;99.90;;;;;;6643236;89;20038;-81
2023/11/03 20:27:02;;;;;;;;;;;7.60;99.90;;;;;;6649610;78;20105;-81
2023/11/03 20:37:03;;;;;;;;;;;7.40;99.90;;;;;;6763528;88;20110;-81
2023/11/03 20:47:05;;;;;;;;;;;7.30;99.90;;;;;;6771277;88;20162;-82
2023/11/03 20:57:06;;;;;;;;;;;7.20;99.90;;;;;;6766676;87;20128;-82
2023/11/03 21:07:06;;;;;;;;;;;7.10;99.90;;;;;;6763452;88;20140;-82
2023/11/03 21:17:07;;;;;;;;;;;6.90;99.90;;;;;;6766240;88;20075;-83
2023/11/03 21:27:08;;;;;;;;;;;7.00;99.90;;;;;;6765311;88;20057;-81
2023/11/03 21:37:08;;;;;;;;;;;7.40;99.90;;;;;;6753195;88;20124;-81
2023/11/03 21:47:09;;;;;;;;;;;7.60;99.90;;;;;;6666566;88;20705;-82
2023/11/03 21:57:09;;;;;;;;;;;8.10;99.90;;;;;;6747235;88;20770;-82
2023/11/03 22:07:10;;;;;;;;;;;8.10;99.90;;;;;;6756297;88;20187;-83
2023/11/03 22:17:11;;;;;;;;;;;8.30;99.90;;;;;;6758869;88;20482;-83
2023/11/03 22:27:12;;;;;;;;;;;8.40;99.90;;;;;;6693458;88;20050;-83
2023/11/03 22:37:14;;;;;;;;;;;8.50;99.90;;;;;;6698031;88;20043;-83
2023/11/03 22:47:14;;;;;;;;;;;8.70;99.90;;;;;;6688017;88;20047;-81
2023/11/03 22:57:15;;;;;;;;;;;8.80;99.90;;;;;;6681519;89;20060;-81
2023/11/03 23:07:15;;;;;;;;;;;8.80;99.90;;;;;;6681324;89;20029;-83
2023/11/03 23:17:16;;;;;;;;;;;8.90;99.90;;;;;;6675288;89;20084;-84
2023/11/03 23:27:16;;;;;;;;;;;9.00;99.90;;;;;;6670585;89;20074;-82
2023/11/03 23:37:17;;;;;;;;;;;8.90;99.90;;;;;;6679200;88;20075;-82
2023/11/03 23:47:17;;;;;;;;;;;9.10;99.90;;;;;;6755879;88;20148;-82
2023/11/03 23:57:18;;;;;;;;;;;9.10;99.90;;;;;;6756332;88;20207;-83
